Elburz, Nevada
Current Conditions -  °F | °C
As of 7:56 PM on Friday 19 Dec 2014 (Local Time) from KEKO Reporting Station
Light Snow Light Snow  
Wind Chill: 33°   Ceiling: 2200
Heat Index: 33°   Visibility: 5mi
Dew Point: 32°   Wind: 0mph
Humidity: 96%   Direction: NA
Pressure: 30.13"   Gusts: NA
Location:  40.9295°N, 115.504°W
Report Text: KEKO 200356Z AUTO 00000KT 5SM -SN BR FEW006 OVC022 01/00 A3013 RMK AO2 SLP222 P0003 T00060000
Loading
Personal Weather Stations






























Interactive Weather Map New forecast layout! Learn more

10-Day Weather Forecast

Advertisements
Track Severe Weather on mobile